Time;durP1;ratioP1;P1;durP2;ratioP2;P2;SDS_P1;SDS_P2;PMS_P1;PMS_P2;Temp;Humidity;BMP_temperature;BMP_pressure;BME280_temperature;BME280_humidity;BME280_pressure;Samples;Min_cycle;Max_cycle;Signal;HPM_P1;HPM_P2
2022/03/11 00:02:03;;;;;;;13.20;5.10;;;;;;;-4.59;55.07;101820.08;213727;1274;140533;-73
2022/03/11 00:07:15;;;;;;;12.90;5.80;;;;;;;-4.67;55.48;101821.74;213772;1276;140090;-65
2022/03/11 00:12:20;;;;;;;18.10;8.30;;;;;;;-4.74;55.73;101822.52;214986;1274;139979;-70
2022/03/11 00:17:25;;;;;;;16.60;7.10;;;;;;;-4.80;55.87;101821.06;215063;1274;140341;-72
2022/03/11 00:22:30;;;;;;;10.00;6.60;;;;;;;-4.84;56.00;101816.98;216062;1274;141496;-75
2022/03/11 00:27:34;;;;;;;16.80;7.60;;;;;;;-4.87;56.75;101816.27;216151;1274;141169;-71
2022/03/11 00:32:38;;;;;;;9.80;6.20;;;;;;;-4.90;56.95;101812.79;215671;1274;141593;-72
2022/03/11 00:37:43;;;;;;;19.20;8.50;;;;;;;-4.91;56.88;101804.70;215756;1274;140267;-73
2022/03/11 00:42:47;;;;;;;21.00;8.40;;;;;;;-4.94;56.98;101804.39;214640;1274;141863;-72
2022/03/11 00:47:52;;;;;;;15.60;8.40;;;;;;;-4.98;57.43;101805.31;213377;1274;140004;-72
2022/03/11 00:52:57;;;;;;;15.40;8.90;;;;;;;-5.05;57.47;101807.75;215040;1274;140419;-72
2022/03/11 00:58:01;;;;;;;17.10;7.40;;;;;;;-5.11;57.57;101810.31;214481;1276;142414;-69
2022/03/11 01:03:05;;;;;;;14.50;7.20;;;;;;;-5.15;57.45;101808.27;213800;1274;140719;-73
2022/03/11 01:08:11;;;;;;;12.60;6.50;;;;;;;-5.19;57.80;101806.09;213609;1274;141591;-72
2022/03/11 01:13:16;;;;;;;15.80;8.60;;;;;;;-5.22;57.64;101808.35;213850;1274;141776;-72
2022/03/11 01:18:21;;;;;;;13.20;7.80;;;;;;;-5.24;57.50;101808.61;213439;1274;142275;-71
2022/03/11 01:23:29;;;;;;;17.80;7.70;;;;;;;-5.25;57.66;101808.83;213497;1274;141748;-71
2022/03/11 01:28:33;;;;;;;14.80;8.80;;;;;;;-5.30;57.84;101808.57;214219;1275;159830;-71
2022/03/11 01:33:38;;;;;;;18.40;8.90;;;;;;;-5.32;57.80;101808.38;213461;1276;140206;-68
2022/03/11 01:38:43;;;;;;;16.30;7.20;;;;;;;-5.34;57.73;101806.77;213799;1275;139748;-70
2022/03/11 01:43:54;;;;;;;13.20;6.60;;;;;;;-5.40;58.01;101805.30;214413;1274;140661;-72
2022/03/11 01:49:01;;;;;;;15.90;8.30;;;;;;;-5.48;58.25;101807.80;214547;1274;141304;-71
2022/03/11 01:54:06;;;;;;;17.40;8.20;;;;;;;-5.50;58.32;101813.83;214014;1276;141112;-70
2022/03/11 01:59:11;;;;;;;16.40;10.40;;;;;;;-5.53;58.71;101815.72;215095;1274;139807;-71
2022/03/11 02:04:16;;;;;;;14.70;7.70;;;;;;;-5.59;59.25;101817.59;213536;1274;142004;-71
2022/03/11 02:09:20;;;;;;;17.60;8.40;;;;;;;-5.69;59.55;101821.92;215499;1274;142139;-71
2022/03/11 02:14:24;;;;;;;19.80;9.70;;;;;;;-5.77;59.86;101824.36;214975;1276;140803;-71
2022/03/11 02:19:28;;;;;;;17.80;10.70;;;;;;;-5.79;59.77;101818.25;215986;1274;141055;-71
2022/03/11 02:24:32;;;;;;;18.70;10.20;;;;;;;-5.76;60.00;101822.45;216152;1274;142621;-73
2022/03/11 02:29:37;;;;;;;17.80;10.40;;;;;;;-5.67;60.16;101830.47;215470;1274;671064;-74
2022/03/11 02:34:41;;;;;;;15.00;11.50;;;;;;;-5.62;60.58;101829.02;215923;1274;140476;-73
2022/03/11 02:39:46;;;;;;;21.70;10.90;;;;;;;-5.71;60.47;101833.28;215426;1274;140089;-71
2022/03/11 02:44:50;;;;;;;17.20;8.40;;;;;;;-5.88;60.37;101835.90;214539;1274;141068;-70
2022/03/11 02:49:55;;;;;;;13.20;7.80;;;;;;;-6.08;60.38;101831.92;214239;1274;139844;-66
2022/03/11 02:54:59;;;;;;;11.60;7.50;;;;;;;-6.26;60.79;101828.84;214733;1276;141274;-70
2022/03/11 03:00:04;;;;;;;16.90;7.10;;;;;;;-6.42;61.31;101831.52;214332;1274;139859;-69
2022/03/11 03:05:09;;;;;;;16.50;7.80;;;;;;;-6.56;61.82;101835.67;214064;1274;141502;-69
2022/03/11 03:10:13;;;;;;;26.80;10.70;;;;;;;-6.63;62.42;101838.79;213198;1274;140471;-69
2022/03/11 03:15:17;;;;;;;18.40;10.20;;;;;;;-6.67;62.56;101843.11;214273;1275;140635;-70
2022/03/11 03:20:22;;;;;;;25.70;11.00;;;;;;;-6.72;62.64;101838.84;214359;1274;141508;-71
2022/03/11 03:25:26;;;;;;;19.90;9.60;;;;;;;-6.74;62.94;101839.48;213919;1274;141851;-70
2022/03/11 03:30:30;;;;;;;15.50;9.80;;;;;;;-6.80;62.84;101840.81;213936;1274;140278;-64
2022/03/11 03:35:35;;;;;;;25.20;10.60;;;;;;;-6.81;63.04;101844.30;214300;1274;140407;-71
2022/03/11 03:40:42;;;;;;;24.30;11.50;;;;;;;-6.75;63.46;101844.73;214194;1276;141354;-70
2022/03/11 03:45:45;;;;;;;20.40;10.90;;;;;;;-6.68;63.57;101844.37;213849;1274;141962;-68
2022/03/11 03:50:49;;;;;;;18.00;10.20;;;;;;;-6.64;63.64;101842.27;213671;1274;142093;-70
2022/03/11 03:55:53;;;;;;;15.30;8.70;;;;;;;-6.66;63.47;101843.39;213388;1276;141716;-69
2022/03/11 04:00:57;;;;;;;17.60;8.90;;;;;;;-6.75;63.33;101842.33;214022;1276;141566;-69
2022/03/11 04:06:02;;;;;;;19.00;9.80;;;;;;;-6.85;63.32;101841.91;213926;1276;154049;-69
2022/03/11 04:11:06;;;;;;;17.00;9.50;;;;;;;-6.88;63.64;101837.91;213761;1275;141410;-69
2022/03/11 04:16:10;;;;;;;17.00;9.00;;;;;;;-6.88;63.82;101836.17;213146;1276;142856;-69
2022/03/11 04:21:14;;;;;;;21.80;10.80;;;;;;;-6.84;63.85;101836.50;213491;1276;140845;-69
2022/03/11 04:26:19;;;;;;;18.00;8.30;;;;;;;-6.78;63.84;101836.77;215226;1276;142854;-69
2022/03/11 04:31:24;;;;;;;17.60;9.10;;;;;;;-6.75;63.90;101843.36;215804;1276;141620;-69
2022/03/11 04:36:31;;;;;;;13.60;8.10;;;;;;;-6.70;63.85;101843.11;215722;1276;141280;-69
2022/03/11 04:41:36;;;;;;;22.50;10.90;;;;;;;-6.65;63.91;101847.52;215430;1276;140431;-67
2022/03/11 04:46:40;;;;;;;25.20;8.70;;;;;;;-6.66;63.38;101848.08;214815;1276;141104;-70
2022/03/11 04:51:44;;;;;;;23.40;9.00;;;;;;;-6.66;63.46;101852.25;215602;1277;140618;-69
2022/03/11 04:56:48;;;;;;;20.30;9.60;;;;;;;-6.64;63.44;101857.13;215408;1276;141051;-69
2022/03/11 05:01:52;;;;;;;24.10;8.90;;;;;;;-6.60;63.52;101855.42;214249;1276;141469;-68
2022/03/11 05:06:57;;;;;;;24.00;10.10;;;;;;;-6.59;63.58;101858.14;214480;1276;140502;-68
2022/03/11 05:12:01;;;;;;;26.30;13.40;;;;;;;-6.57;63.64;101852.51;214678;1276;141587;-66
2022/03/11 05:17:05;;;;;;;22.80;10.40;;;;;;;-6.49;63.64;101847.44;213437;1278;140626;-66
2022/03/11 05:22:11;;;;;;;33.60;13.40;;;;;;;-6.47;63.40;101848.71;213995;1274;142239;-70
2022/03/11 05:27:16;;;;;;;25.30;12.80;;;;;;;-6.47;63.28;101845.09;214072;1274;143662;-70
2022/03/11 05:32:21;;;;;;;41.20;13.90;;;;;;;-6.43;63.32;101851.48;213269;1274;140339;-68
2022/03/11 05:37:25;;;;;;;35.30;16.60;;;;;;;-6.36;63.38;101850.77;213221;1276;141354;-71
2022/03/11 05:42:29;;;;;;;49.10;20.70;;;;;;;-6.27;63.54;101853.98;214306;1274;140454;-69
2022/03/11 05:47:34;;;;;;;49.70;21.60;;;;;;;-6.19;63.39;101855.84;213570;1276;143602;-69
2022/03/11 05:52:40;;;;;;;42.60;20.20;;;;;;;-6.10;63.45;101852.96;213728;1274;140869;-68
2022/03/11 05:57:44;;;;;;;47.20;21.70;;;;;;;-5.97;63.51;101852.63;213617;1274;142033;-71
2022/03/11 06:02:50;;;;;;;35.40;16.00;;;;;;;-5.76;63.51;101848.44;214177;1274;141050;-69
2022/03/11 06:07:55;;;;;;;39.30;18.50;;;;;;;-5.53;63.41;101850.52;213879;1274;140532;-65
2022/03/11 06:12:59;;;;;;;36.70;19.00;;;;;;;-5.29;63.21;101850.30;214893;1274;141195;-71
2022/03/11 06:18:04;;;;;;;47.20;21.30;;;;;;;-5.05;62.89;101850.38;215729;1274;140682;-71
2022/03/11 06:23:08;;;;;;;34.60;19.70;;;;;;;-4.89;62.49;101851.41;215178;1276;141003;-70
2022/03/11 06:28:12;;;;;;;41.40;18.40;;;;;;;-4.72;62.29;101857.79;215430;1274;141339;-70
2022/03/11 06:33:16;;;;;;;29.30;16.00;;;;;;;-4.59;61.55;101865.52;216018;1274;141383;-72
2022/03/11 06:38:20;;;;;;;28.10;14.10;;;;;;;-4.47;61.09;101865.20;215400;1273;141283;-73
2022/03/11 06:43:25;;;;;;;25.80;10.40;;;;;;;-4.39;60.56;101863.52;215209;1274;140559;-74
2022/03/11 06:48:29;;;;;;;19.30;8.90;;;;;;;-4.28;60.05;101864.48;214756;1274;140797;-68
2022/03/11 06:53:34;;;;;;;22.70;8.80;;;;;;;-4.16;59.31;101865.54;215902;1274;141843;-72
2022/03/11 06:58:42;;;;;;;16.10;8.60;;;;;;;-3.86;58.75;101865.68;215413;1274;140388;-69
2022/03/11 07:03:46;;;;;;;13.80;7.60;;;;;;;-3.35;58.50;101868.15;214894;1274;140942;-69
2022/03/11 07:08:50;;;;;;;10.70;6.50;;;;;;;-2.86;58.15;101865.12;215232;1274;139888;-75
2022/03/11 07:13:55;;;;;;;16.30;8.00;;;;;;;-2.11;56.74;101857.13;214680;1275;140199;-77
2022/03/11 07:18:59;;;;;;;17.30;9.10;;;;;;;-0.84;56.56;101850.04;215194;1274;139909;-78
2022/03/11 07:24:02;;;;;;;13.30;5.80;;;;;;;0.85;54.99;101848.34;213555;1274;140809;-74
2022/03/11 07:29:06;;;;;;;19.60;9.30;;;;;;;2.38;52.02;101846.30;213215;1276;140738;-71
2022/03/11 07:34:09;;;;;;;31.80;8.20;;;;;;;3.37;50.65;101843.40;214393;1274;142380;-69
2022/03/11 07:39:13;;;;;;;16.80;9.00;;;;;;;4.51;49.65;101840.30;213923;1275;141802;-73
2022/03/11 07:44:17;;;;;;;10.10;7.80;;;;;;;5.51;48.55;101835.84;213408;1276;140030;-76
2022/03/11 07:49:28;;;;;;;13.90;6.40;;;;;;;5.93;46.84;101831.95;213064;1276;139831;-73
2022/03/11 07:54:33;;;;;;;17.50;7.00;;;;;;;5.93;45.98;101834.47;213317;1276;235761;-73
2022/03/11 07:59:39;;;;;;;14.00;7.00;;;;;;;5.76;44.94;101839.30;213924;1276;140404;-75
2022/03/11 08:04:43;;;;;;;15.50;7.40;;;;;;;5.21;42.72;101844.94;213844;1275;140045;-77
2022/03/11 08:09:50;;;;;;;11.40;6.10;;;;;;;4.26;42.36;101844.50;213783;1276;142091;-73
2022/03/11 08:14:57;;;;;;;14.50;7.40;;;;;;;3.84;42.96;101841.20;214128;1274;139607;-73
2022/03/11 08:20:02;;;;;;;12.50;6.60;;;;;;;3.74;43.23;101838.72;213661;1274;140110;-73
2022/03/11 08:25:08;;;;;;;10.10;6.20;;;;;;;3.71;42.91;101836.69;214422;1274;231899;-75
2022/03/11 08:30:14;;;;;;;11.00;6.90;;;;;;;3.45;42.03;101833.94;214029;1272;141364;-74
2022/03/11 08:35:19;;;;;;;9.10;6.70;;;;;;;3.23;41.94;101837.85;214380;1274;140637;-76
2022/03/11 08:40:26;;;;;;;12.20;6.20;;;;;;;2.95;41.62;101842.82;214998;1274;140006;-72
2022/03/11 08:45:32;;;;;;;10.50;6.10;;;;;;;2.90;42.05;101841.80;214449;1274;139823;-71
2022/03/11 08:50:36;;;;;;;12.40;6.30;;;;;;;2.96;41.92;101840.20;214803;1274;140347;-71
2022/03/11 08:55:41;;;;;;;9.30;5.40;;;;;;;2.99;41.75;101843.48;215882;1274;139591;-73
2022/03/11 09:00:45;;;;;;;10.00;5.50;;;;;;;3.09;41.40;101840.83;215997;1274;141132;-73
2022/03/11 09:05:49;;;;;;;10.60;6.50;;;;;;;3.03;40.72;101844.18;215245;1274;140356;-71
2022/03/11 09:10:53;;;;;;;10.30;6.00;;;;;;;3.04;40.43;101843.38;214083;1274;140286;-72
2022/03/11 09:15:57;;;;;;;9.50;6.40;;;;;;;3.08;40.71;101840.77;213789;1274;139907;-70
2022/03/11 09:21:01;;;;;;;11.40;7.20;;;;;;;3.12;39.85;101836.20;214289;1276;139989;-66
2022/03/11 09:26:05;;;;;;;15.70;6.80;;;;;;;3.17;40.02;101832.80;214586;1274;140184;-70
2022/03/11 09:31:09;;;;;;;17.50;6.80;;;;;;;3.39;39.93;101835.01;214899;1274;139561;-70
2022/03/11 09:36:14;;;;;;;11.40;6.10;;;;;;;3.59;39.80;101835.34;213670;1276;139613;-69
2022/03/11 09:41:20;;;;;;;8.50;5.60;;;;;;;3.63;39.00;101829.45;213721;1274;142144;-69
2022/03/11 09:46:25;;;;;;;10.40;6.80;;;;;;;3.60;38.66;101826.98;214141;1274;139100;-68
2022/03/11 09:51:35;;;;;;;10.80;6.70;;;;;;;3.63;38.53;101829.88;214005;1276;139857;-69
2022/03/11 09:56:42;;;;;;;8.10;4.20;;;;;;;3.51;37.36;101833.41;214241;1274;140747;-71
2022/03/11 10:01:46;;;;;;;8.00;5.60;;;;;;;3.47;36.56;101830.55;214469;1276;139753;-70
2022/03/11 10:06:52;;;;;;;10.60;5.20;;;;;;;3.49;37.52;101833.94;214141;1274;139783;-70
2022/03/11 10:11:58;;;;;;;7.20;4.90;;;;;;;3.67;37.47;101827.20;213151;1274;142167;-69
2022/03/11 10:17:04;;;;;;;15.40;5.90;;;;;;;3.89;37.42;101818.70;214763;1276;139746;-69
2022/03/11 10:22:10;;;;;;;11.60;5.40;;;;;;;4.01;36.80;101811.03;214596;1274;139809;-69
2022/03/11 10:28:00;;;;;;;12.70;6.20;;;;;;;4.24;37.35;101810.82;214247;1275;143244;-71
2022/03/11 10:33:07;;;;;;;11.40;5.50;;;;;;;4.44;36.48;101808.11;214357;1276;141617;-70
2022/03/11 10:38:17;;;;;;;9.10;5.20;;;;;;;4.32;36.20;101803.90;214776;1274;140957;-69
2022/03/11 10:43:27;;;;;;;8.20;5.70;;;;;;;4.36;36.26;101801.61;215335;1274;140058;-71
2022/03/11 10:48:53;;;;;;;8.20;5.00;;;;;;;4.22;35.20;101799.77;214806;1274;139287;-68
2022/03/11 10:54:00;;;;;;;12.00;5.50;;;;;;;4.23;35.19;101790.55;216053;1274;140358;-70
2022/03/11 10:59:18;;;;;;;7.10;5.00;;;;;;;4.32;35.45;101788.64;215996;1274;141666;-70
2022/03/11 11:04:22;;;;;;;8.60;5.40;;;;;;;4.50;35.39;101782.38;215237;1274;141072;-69
2022/03/11 11:09:28;;;;;;;6.60;4.60;;;;;;;4.49;34.59;101774.56;216003;1276;140147;-71
2022/03/11 11:14:33;;;;;;;13.40;7.40;;;;;;;4.65;35.11;101771.59;215072;1277;140477;-69
2022/03/11 11:19:38;;;;;;;2.90;2.60;;;;;;;4.73;34.66;101772.56;215010;1274;139956;-69
2022/03/11 11:24:44;;;;;;;6.50;3.80;;;;;;;4.83;34.55;101768.59;213820;1274;142655;-70
2022/03/11 11:29:52;;;;;;;13.30;6.00;;;;;;;4.94;34.71;101766.09;214806;1274;140547;-73
2022/03/11 11:35:27;;;;;;;11.00;5.60;;;;;;;5.07;34.45;101765.77;214819;1274;141274;-68
2022/03/11 11:40:38;;;;;;;6.80;5.50;;;;;;;4.98;34.41;101759.20;213584;1274;139893;-71
2022/03/11 11:45:47;;;;;;;6.00;3.40;;;;;;;4.97;34.45;101759.11;214162;1276;140684;-71
2022/03/11 11:50:52;;;;;;;5.60;4.80;;;;;;;5.04;34.42;101754.93;214356;1274;141806;-73
2022/03/11 11:55:57;;;;;;;9.90;4.00;;;;;;;4.90;33.71;101752.96;213826;1274;139403;-71
2022/03/11 12:01:06;;;;;;;4.90;4.10;;;;;;;4.82;33.93;101749.02;214064;1275;139832;-73
2022/03/11 12:06:11;;;;;;;8.10;4.10;;;;;;;4.96;34.23;101746.55;214115;1276;139770;-70
2022/03/11 12:11:45;;;;;;;7.90;4.30;;;;;;;5.03;34.13;101738.13;214073;1277;139708;-67
2022/03/11 12:17:05;;;;;;;6.30;3.70;;;;;;;5.01;33.92;101731.99;213706;1277;139928;-69
2022/03/11 12:22:33;;;;;;;3.00;2.60;;;;;;;5.05;33.86;101728.24;214504;1276;141586;-69
2022/03/11 12:27:58;;;;;;;8.00;3.80;;;;;;;4.99;33.33;101723.19;214635;1276;140925;-68
2022/03/11 12:33:05;;;;;;;5.80;3.40;;;;;;;4.94;33.68;101714.09;214100;1276;141047;-71
2022/03/11 12:38:16;;;;;;;6.50;3.60;;;;;;;4.87;33.07;101712.20;214713;1276;139800;-70
2022/03/11 12:43:22;;;;;;;23.00;6.00;;;;;;;4.71;32.81;101702.51;214622;1276;140063;-71
2022/03/11 12:48:33;;;;;;;6.70;5.30;;;;;;;4.77;33.29;101695.77;214396;1276;140220;-76
2022/03/11 12:53:41;;;;;;;4.90;4.40;;;;;;;4.71;32.81;101692.47;214124;1276;140763;-72
2022/03/11 12:58:48;;;;;;;8.60;4.90;;;;;;;4.68;32.94;101685.37;216006;1276;140901;-73
2022/03/11 13:03:54;;;;;;;8.40;5.20;;;;;;;4.65;32.79;101680.33;216198;1274;140841;-72
2022/03/11 13:09:03;;;;;;;7.90;5.30;;;;;;;4.61;32.99;101675.95;215818;1274;140180;-71
2022/03/11 13:14:08;;;;;;;18.20;8.70;;;;;;;4.68;32.98;101676.53;214634;1276;140695;-72
2022/03/11 13:19:12;;;;;;;8.80;3.90;;;;;;;4.76;33.21;101666.94;213393;1276;140823;-70
2022/03/11 13:24:17;;;;;;;23.00;8.20;;;;;;;4.74;32.65;101672.80;213605;1277;140657;-70
2022/03/11 13:29:21;;;;;;;9.30;4.50;;;;;;;4.66;32.34;101667.75;215176;1276;141335;-75
2022/03/11 13:34:34;;;;;;;10.70;4.40;;;;;;;4.57;32.25;101661.59;213587;1276;140164;-70
2022/03/11 13:39:38;;;;;;;5.30;3.50;;;;;;;4.61;32.84;101657.35;213648;1276;140484;-74
2022/03/11 13:44:44;;;;;;;5.60;3.80;;;;;;;4.62;32.77;101652.35;213780;1276;140426;-73
2022/03/11 13:49:53;;;;;;;9.10;4.70;;;;;;;4.57;32.48;101646.14;214101;1276;139925;-76
2022/03/11 13:55:07;;;;;;;4.60;2.90;;;;;;;4.57;32.77;101645.29;213842;1276;140506;-72
2022/03/11 14:00:24;;;;;;;12.00;5.60;;;;;;;4.62;32.67;101642.81;213728;1274;139443;-79
2022/03/11 14:05:42;;;;;;;7.70;4.40;;;;;;;4.58;32.84;101634.44;213604;1274;139447;-76
2022/03/11 14:10:50;;;;;;;7.90;5.00;;;;;;;4.56;32.47;101632.33;214430;1276;139646;-73
2022/03/11 14:15:55;;;;;;;10.00;4.80;;;;;;;4.37;32.49;101625.71;213624;1276;139296;-68
2022/03/11 14:20:59;;;;;;;7.90;5.10;;;;;;;4.33;32.57;101621.98;214323;1276;140073;-71
2022/03/11 14:26:03;;;;;;;8.90;4.00;;;;;;;4.34;32.86;101617.88;214256;1276;139798;-72
2022/03/11 14:31:08;;;;;;;8.20;5.40;;;;;;;4.30;32.59;101613.48;212808;1276;814068;-77
2022/03/11 14:36:13;;;;;;;6.80;3.70;;;;;;;4.21;32.49;101616.01;213373;1276;139521;-71
2022/03/11 14:41:18;;;;;;;9.20;5.00;;;;;;;4.11;32.44;101610.08;214306;1275;140425;-71
2022/03/11 14:46:22;;;;;;;5.80;3.90;;;;;;;3.96;32.34;101608.84;213472;1275;139429;-75
2022/03/11 14:51:26;;;;;;;7.60;4.50;;;;;;;3.84;32.56;101602.35;213714;1276;141549;-71
2022/03/11 14:56:34;;;;;;;7.40;5.40;;;;;;;3.73;32.81;101602.60;215872;1274;139693;-70
2022/03/11 15:01:37;;;;;;;5.90;3.50;;;;;;;3.70;32.82;101593.95;215670;1274;140911;-73
2022/03/11 15:06:42;;;;;;;9.10;5.10;;;;;;;3.58;32.36;101597.04;214489;1274;141506;-73
2022/03/11 15:11:48;;;;;;;8.20;4.50;;;;;;;3.45;33.03;101591.17;215209;1274;225539;-74
2022/03/11 15:16:55;;;;;;;7.70;5.90;;;;;;;3.37;33.02;101583.05;215943;1274;140394;-78
2022/03/11 15:21:59;;;;;;;13.90;6.50;;;;;;;3.25;32.91;101576.73;215873;1274;154184;-78
2022/03/11 15:27:05;;;;;;;8.60;5.30;;;;;;;3.16;33.05;101577.43;215618;1274;141621;-78
2022/03/11 15:32:09;;;;;;;9.60;5.30;;;;;;;3.08;33.38;101580.31;214438;1274;139727;-73
2022/03/11 15:37:13;;;;;;;9.60;4.90;;;;;;;2.99;33.02;101571.95;214880;1274;139556;-71
2022/03/11 15:42:20;;;;;;;7.80;5.10;;;;;;;2.84;33.11;101570.12;214412;1274;140440;-70
2022/03/11 15:47:25;;;;;;;9.50;4.50;;;;;;;2.71;33.17;101567.04;215049;1274;140085;-74
2022/03/11 15:52:36;;;;;;;12.00;5.20;;;;;;;2.54;33.52;101563.79;214813;1274;140241;-72
2022/03/11 15:57:42;;;;;;;6.40;4.40;;;;;;;2.34;33.40;101564.86;213733;1274;140175;-73
2022/03/11 16:02:48;;;;;;;11.30;5.80;;;;;;;2.19;33.89;101564.60;214102;1274;140377;-72
2022/03/11 16:07:52;;;;;;;13.60;5.40;;;;;;;2.05;34.25;101568.88;213796;1274;140440;-73
2022/03/11 16:12:57;;;;;;;9.60;5.80;;;;;;;1.91;34.64;101572.39;213645;1274;140161;-67
2022/03/11 16:18:04;;;;;;;14.20;5.50;;;;;;;1.82;34.81;101568.25;214225;1276;139731;-71
2022/03/11 16:23:10;;;;;;;28.80;12.70;;;;;;;1.70;35.33;101565.14;213844;1274;139613;-72
2022/03/11 16:28:14;;;;;;;21.70;10.60;;;;;;;1.59;35.78;101569.23;214193;1273;140737;-72
2022/03/11 16:33:39;;;;;;;11.30;6.70;;;;;;;1.50;36.75;101568.06;213283;1273;139757;-75
2022/03/11 16:38:44;;;;;;;14.40;6.80;;;;;;;1.37;37.05;101566.04;214622;1273;141015;-70
2022/03/11 16:43:50;;;;;;;11.50;7.30;;;;;;;1.15;38.08;101572.49;214256;1273;139863;-75
2022/03/11 16:48:54;;;;;;;19.80;9.40;;;;;;;0.96;38.03;101569.98;213919;1273;139453;-74
2022/03/11 16:54:00;;;;;;;14.00;8.50;;;;;;;0.85;38.29;101571.69;215181;1273;140145;-72
2022/03/11 16:59:05;;;;;;;14.90;9.20;;;;;;;0.71;38.50;101568.59;214928;1273;141001;-76
2022/03/11 17:04:11;;;;;;;21.60;10.10;;;;;;;0.60;38.90;101571.84;215563;1273;140216;-78
2022/03/11 17:09:16;;;;;;;20.20;8.60;;;;;;;0.48;39.39;101576.84;215311;1273;140125;-75
2022/03/11 17:14:21;;;;;;;17.20;10.20;;;;;;;0.38;39.22;101577.11;214159;1273;139808;-71
2022/03/11 17:19:25;;;;;;;21.70;9.30;;;;;;;0.29;39.11;101579.07;215354;1273;140105;-76
2022/03/11 17:24:29;;;;;;;8.90;6.80;;;;;;;0.18;39.40;101578.21;216071;1272;141446;-74
2022/03/11 17:29:34;;;;;;;11.60;7.40;;;;;;;0.07;39.74;101582.09;216103;1273;141224;-67
2022/03/11 17:34:38;;;;;;;18.80;10.40;;;;;;;-0.04;40.30;101586.27;216020;1273;140954;-71
2022/03/11 17:39:43;;;;;;;14.20;7.30;;;;;;;-0.18;41.01;101592.94;215588;1273;141223;-73
2022/03/11 17:44:47;;;;;;;15.30;8.40;;;;;;;-0.31;41.50;101594.52;213644;1273;140743;-74
2022/03/11 17:49:50;;;;;;;19.30;9.60;;;;;;;-0.43;41.55;101591.92;214996;1273;140370;-74
2022/03/11 17:54:55;;;;;;;19.70;9.30;;;;;;;-0.57;41.59;101588.61;215325;1273;140972;-69
2022/03/11 17:59:58;;;;;;;19.60;12.10;;;;;;;-0.66;41.46;101588.70;213561;1272;140308;-73
2022/03/11 18:05:04;;;;;;;25.20;12.20;;;;;;;-0.72;41.59;101586.30;215494;1273;142594;-72
2022/03/11 18:10:10;;;;;;;20.30;9.90;;;;;;;-0.79;42.13;101581.64;215354;1273;139914;-71
2022/03/11 18:15:14;;;;;;;28.80;12.80;;;;;;;-0.89;42.97;101576.61;213442;1273;140966;-71
2022/03/11 18:20:20;;;;;;;28.90;16.20;;;;;;;-1.01;42.99;101571.27;214570;1273;141980;-75
2022/03/11 18:25:26;;;;;;;19.10;13.60;;;;;;;-1.11;43.54;101567.80;213740;1273;140182;-75
2022/03/11 18:30:33;;;;;;;23.60;12.20;;;;;;;-1.18;43.91;101564.61;213626;1273;140601;-74
2022/03/11 18:35:38;;;;;;;26.10;16.20;;;;;;;-1.29;44.57;101566.07;214455;1274;141199;-73
2022/03/11 18:40:42;;;;;;;30.80;14.60;;;;;;;-1.44;44.95;101565.76;213935;1274;140687;-78
2022/03/11 18:45:46;;;;;;;33.50;16.40;;;;;;;-1.63;45.98;101566.30;214407;1274;141636;-76
2022/03/11 18:50:53;;;;;;;36.10;18.10;;;;;;;-1.88;46.20;101562.48;214213;1274;142041;-76
2022/03/11 18:55:56;;;;;;;44.00;19.60;;;;;;;-2.09;46.26;101559.83;214342;1274;142742;-76
2022/03/11 19:01:00;;;;;;;43.10;20.40;;;;;;;-2.24;46.35;101560.52;213854;1274;142264;-76
2022/03/11 19:06:06;;;;;;;37.90;19.20;;;;;;;-2.33;46.68;101561.71;214753;1274;140721;-72
2022/03/11 19:11:19;;;;;;;39.00;20.00;;;;;;;-2.38;47.48;101563.95;214995;1274;223314;-76
2022/03/11 19:16:23;;;;;;;45.70;22.10;;;;;;;-2.41;48.21;101565.39;215076;1273;140772;-78
2022/03/11 19:21:27;;;;;;;37.90;18.10;;;;;;;-2.47;48.54;101565.45;215577;1274;139937;-76
2022/03/11 19:26:31;;;;;;;38.70;19.80;;;;;;;-2.53;48.48;101562.23;215224;1274;140389;-76
2022/03/11 19:31:41;;;;;;;37.70;20.10;;;;;;;-2.66;49.12;101554.75;215602;1274;140952;-66
2022/03/11 19:36:48;;;;;;;43.70;19.80;;;;;;;-2.77;49.24;101561.80;213681;1274;141415;-76
2022/03/11 19:41:54;;;;;;;43.90;22.20;;;;;;;-2.84;49.70;101556.49;214696;1274;142846;-76
2022/03/11 19:46:58;;;;;;;38.80;20.20;;;;;;;-2.88;49.54;101557.47;215304;1274;141043;-76
2022/03/11 19:52:06;;;;;;;40.90;18.40;;;;;;;-2.91;49.54;101553.14;214098;1274;140945;-77
2022/03/11 19:57:11;;;;;;;31.10;16.20;;;;;;;-2.91;49.42;101552.35;214908;1274;142815;-77
2022/03/11 20:02:15;;;;;;;31.10;16.00;;;;;;;-2.91;49.34;101555.13;215036;1274;140144;-76
2022/03/11 20:07:20;;;;;;;23.40;13.40;;;;;;;-2.90;49.05;101551.55;214064;1272;140245;-75
2022/03/11 20:12:25;;;;;;;28.80;11.60;;;;;;;-2.89;48.57;101552.02;214218;1274;140108;-76
2022/03/11 20:17:28;;;;;;;23.30;11.50;;;;;;;-2.89;48.27;101555.96;214994;1274;140337;-68
2022/03/11 20:22:34;;;;;;;20.90;10.90;;;;;;;-2.88;48.06;101558.23;214220;1274;140269;-76
2022/03/11 20:27:42;;;;;;;18.00;10.60;;;;;;;-2.89;48.17;101555.84;214198;1274;140208;-76
2022/03/11 20:32:46;;;;;;;26.60;12.60;;;;;;;-2.91;48.15;101557.84;213706;1274;142187;-76
2022/03/11 20:37:50;;;;;;;14.80;9.60;;;;;;;-2.92;47.88;101551.36;213805;1274;141606;-76
2022/03/11 20:42:55;;;;;;;19.70;9.40;;;;;;;-2.93;47.56;101551.58;213650;1274;153603;-75
2022/03/11 20:48:01;;;;;;;15.90;8.90;;;;;;;-2.93;47.16;101548.63;213433;1274;142478;-76
2022/03/11 20:53:06;;;;;;;28.70;14.50;;;;;;;-2.96;47.15;101548.30;213259;1274;140615;-68
2022/03/11 20:58:10;;;;;;;26.10;11.40;;;;;;;-3.00;47.56;101550.63;214827;1271;140948;-76
2022/03/11 21:03:16;;;;;;;39.20;18.80;;;;;;;-3.02;47.43;101552.54;213698;1274;140210;-76
2022/03/11 21:08:21;;;;;;;55.40;20.00;;;;;;;-3.04;47.56;101552.51;214855;1274;141402;-77
2022/03/11 21:13:26;;;;;;;25.70;15.20;;;;;;;-3.08;47.41;101549.23;214272;1274;141853;-74
2022/03/11 21:18:31;;;;;;;19.00;10.70;;;;;;;-3.10;47.33;101546.30;213930;1275;206259;-69
2022/03/11 21:23:37;;;;;;;26.20;12.00;;;;;;;-3.14;47.30;101547.25;215532;1274;140414;-75
2022/03/11 21:28:43;;;;;;;29.00;14.80;;;;;;;-3.16;47.46;101547.75;214661;1274;142701;-75
2022/03/11 21:33:46;;;;;;;26.10;13.70;;;;;;;-3.15;47.50;101545.05;215330;1274;140850;-75
2022/03/11 21:38:58;;;;;;;22.80;11.40;;;;;;;-3.14;47.49;101544.85;215250;1274;140404;-74
2022/03/11 21:44:03;;;;;;;27.40;14.30;;;;;;;-3.12;47.37;101539.78;215775;1274;140358;-72
2022/03/11 21:49:08;;;;;;;26.00;12.30;;;;;;;-3.06;47.09;101537.34;215020;1273;140382;-72
2022/03/11 21:54:14;;;;;;;22.40;11.20;;;;;;;-3.03;46.89;101532.41;214845;1274;141925;-73
2022/03/11 21:59:23;;;;;;;14.20;9.60;;;;;;;-3.04;46.96;101526.91;215463;1274;140188;-74
2022/03/11 22:04:28;;;;;;;15.00;9.10;;;;;;;-3.07;46.93;101521.55;215174;1274;141883;-73
2022/03/11 22:09:35;;;;;;;14.90;8.30;;;;;;;-3.10;46.94;101523.85;213578;1274;140618;-73
2022/03/11 22:14:39;;;;;;;19.50;8.40;;;;;;;-3.12;46.84;101515.30;213751;1274;141717;-75
2022/03/11 22:19:43;;;;;;;29.50;12.10;;;;;;;-3.15;47.21;101513.73;214364;1274;142114;-73
2022/03/11 22:24:47;;;;;;;27.80;10.70;;;;;;;-3.17;47.19;101516.17;214646;1274;140670;-74
2022/03/11 22:29:51;;;;;;;24.90;10.50;;;;;;;-3.20;47.55;101515.86;214145;1274;140629;-74
2022/03/11 22:34:56;;;;;;;25.90;12.80;;;;;;;-3.23;47.24;101516.41;214655;1274;139943;-74
2022/03/11 22:40:00;;;;;;;19.80;9.30;;;;;;;-3.26;47.25;101512.04;213545;1274;140392;-73
2022/03/11 22:45:06;;;;;;;28.50;12.50;;;;;;;-3.31;47.48;101507.55;213861;1275;139939;-73
2022/03/11 22:50:31;;;;;;;33.80;13.30;;;;;;;-3.38;47.57;101511.52;214686;1274;140141;-74
2022/03/11 22:55:45;;;;;;;30.70;13.90;;;;;;;-3.43;47.88;101516.53;213287;1274;235841;-73
2022/03/11 23:00:52;;;;;;;23.90;10.60;;;;;;;-3.48;47.69;101518.23;214296;1274;140118;-73